Terminal Aerodrome Forecast
Issued by NWS Central Illinois

Home | Current Version | Previous Version | Text Only | Print | Product List | Glossary On
Versions: 1 2 3 4 5 6 7 8 9 10 11 12 13 14 15 16 17 18 19 20
062
FTUS43 KILX 210538
TAFSPI
TAF
KSPI 210538Z 2106/2206 20012G20KT P6SM FEW250 WS015/22050KT
     FM211100 21011KT P6SM BKN200 WS015/23045KT
     FM211400 24011KT P6SM BKN100
     FM211700 29012G20KT P6SM BKN100
     FM220000 32008KT P6SM SKC=

USA.gov is the U.S. government's official web portal to all federal, state and local government web resources and services.